Time;durP1;ratioP1;P1;durP2;ratioP2;P2;SDS_P1;SDS_P2;PMS_P1;PMS_P2;Temp;Humidity;BMP_temperature;BMP_pressure;BME280_temperature;BME280_humidity;BME280_pressure;Samples;Min_cycle;Max_cycle;Signal;HPM_P1;HPM_P2
2023/02/27 00:00:53;;;;;;;9.40;6.88;;;5.50;99.90;;;;;;5095773;28;20222;-85
2023/02/27 00:03:19;;;;;;;9.03;7.43;;;5.40;99.90;;;;;;5096939;28;20197;-86
2023/02/27 00:05:44;;;;;;;10.87;7.73;;;5.30;99.90;;;;;;5096819;28;20181;-77
2023/02/27 00:08:10;;;;;;;9.00;6.33;;;5.30;99.90;;;;;;5096917;28;20420;-77
2023/02/27 00:10:36;;;;;;;9.68;7.28;;;5.30;99.90;;;;;;5096744;28;20576;-86
2023/02/27 00:13:02;;;;;;;10.57;7.68;;;5.20;99.90;;;;;;5096665;28;20695;-77
2023/02/27 00:15:30;;;;;;;8.80;6.37;;;5.20;99.90;;;;;;5096718;28;20287;-84
2023/02/27 00:17:57;;;;;;;10.75;8.02;;;5.30;99.90;;;;;;5095484;28;20215;-77
2023/02/27 00:20:22;;;;;;;9.00;7.30;;;5.30;99.90;;;;;;5096698;28;20190;-84
2023/02/27 00:22:48;;;;;;;9.47;7.07;;;5.30;99.90;;;;;;5096998;28;20767;-78
2023/02/27 00:25:14;;;;;;;9.40;7.40;;;5.20;99.90;;;;;;5096557;28;20180;-78
2023/02/27 00:27:40;;;;;;;11.13;7.67;;;5.20;99.90;;;;;;5095425;28;20204;-76
2023/02/27 00:30:08;;;;;;;10.03;7.30;;;5.20;99.90;;;;;;5095212;28;20421;-85
2023/02/27 00:32:35;;;;;;;8.82;6.45;;;5.20;99.90;;;;;;5095072;28;20552;-77
2023/02/27 00:35:04;;;;;;;9.88;6.30;;;5.20;99.90;;;;;;5096385;28;20641;-77
2023/02/27 00:37:29;;;;;;;12.07;7.35;;;5.20;99.90;;;;;;5095941;28;20228;-77
2023/02/27 00:39:55;;;;;;;6.77;5.47;;;5.30;99.90;;;;;;5095067;28;20263;-82
2023/02/27 00:42:21;;;;;;;10.57;8.00;;;5.20;99.90;;;;;;5096133;28;20787;-85
2023/02/27 00:44:46;;;;;;;8.67;6.53;;;5.20;99.90;;;;;;5094753;28;20187;-77
2023/02/27 00:47:12;;;;;;;9.67;7.20;;;5.20;99.90;;;;;;5096363;28;20207;-77
2023/02/27 00:49:38;;;;;;;9.30;7.03;;;5.30;99.90;;;;;;5096087;28;20165;-84
2023/02/27 00:52:04;;;;;;;7.20;6.20;;;5.20;99.90;;;;;;5094815;28;20718;-77
2023/02/27 00:54:29;;;;;;;9.73;5.88;;;5.20;99.90;;;;;;5095925;28;20289;-84
2023/02/27 00:56:55;;;;;;;11.50;7.00;;;5.30;99.90;;;;;;5094467;28;20303;-86
2023/02/27 00:59:21;;;;;;;9.70;6.90;;;5.40;99.90;;;;;;5095810;28;20165;-80
2023/02/27 01:01:46;;;;;;;11.63;7.70;;;5.30;99.90;;;;;;5095932;28;20195;-77
2023/02/27 01:04:12;;;;;;;9.40;6.50;;;5.30;99.90;;;;;;5095866;28;20691;-83
2023/02/27 01:06:38;;;;;;;10.48;7.10;;;5.30;99.90;;;;;;5094422;28;20657;-76
2023/02/27 01:09:04;;;;;;;9.27;7.10;;;5.30;99.90;;;;;;5095774;28;20196;-76
2023/02/27 01:11:29;;;;;;;9.77;7.37;;;5.30;99.90;;;;;;5094501;28;20184;-85
2023/02/27 01:13:55;;;;;;;8.13;6.57;;;5.30;99.90;;;;;;5095454;28;20248;-77
2023/02/27 01:16:22;;;;;;;9.37;7.33;;;5.20;99.90;;;;;;5094312;28;20216;-82
2023/02/27 01:18:47;;;;;;;10.40;6.47;;;5.10;99.90;;;;;;5095456;28;20427;-77
2023/02/27 01:21:13;;;;;;;8.47;6.50;;;5.10;99.90;;;;;;5095698;28;20263;-85
2023/02/27 01:23:39;;;;;;;10.97;7.00;;;5.10;99.90;;;;;;5094036;28;20253;-85
2023/02/27 01:26:04;;;;;;;9.70;6.40;;;5.10;99.90;;;;;;5094094;28;20543;-77
2023/02/27 01:28:30;;;;;;;8.40;6.53;;;5.10;99.90;;;;;;5095243;28;20639;-77
2023/02/27 01:30:56;;;;;;;8.90;7.10;;;5.10;99.90;;;;;;5095416;28;20245;-76
2023/02/27 01:33:21;;;;;;;13.37;7.37;;;5.10;99.90;;;;;;5093886;28;20197;-85
2023/02/27 01:35:47;;;;;;;9.20;6.83;;;5.10;99.90;;;;;;5093748;28;20578;-86
2023/02/27 01:38:13;;;;;;;11.00;6.87;;;5.10;99.90;;;;;;5095045;28;20392;-77
2023/02/27 01:40:40;;;;;;;9.50;6.40;;;5.10;99.90;;;;;;5093740;28;20176;-77
2023/02/27 01:43:09;;;;;;;9.50;7.05;;;5.10;99.90;;;;;;5095057;28;20661;-85
2023/02/27 01:45:38;;;;;;;11.35;6.07;;;5.10;99.90;;;;;;5093701;28;20176;-85
2023/02/27 01:48:22;;;;;;;7.07;6.10;;;5.10;99.90;;;;;;5093583;28;20236;-77
2023/02/27 01:50:56;;;;;;;8.32;5.63;;;5.00;99.90;;;;;;5094835;28;20233;-85
2023/02/27 01:53:24;;;;;;;8.50;5.43;;;5.00;99.90;;;;;;5094792;28;20271;-85
2023/02/27 01:55:53;;;;;;;8.30;5.45;;;5.00;99.90;;;;;;5094187;28;20200;-76
2023/02/27 01:58:20;;;;;;;6.18;5.03;;;4.90;99.90;;;;;;5094709;28;20189;-85
2023/02/27 02:00:47;;;;;;;6.68;5.10;;;5.00;99.90;;;;;;5093355;28;20204;-77
2023/02/27 02:03:16;;;;;;;6.30;5.40;;;5.00;99.90;;;;;;5094606;28;20314;-83
2023/02/27 02:05:43;;;;;;;7.85;4.97;;;5.00;99.90;;;;;;5094624;28;20179;-78
2023/02/27 02:08:12;;;;;;;7.13;4.68;;;5.00;99.90;;;;;;5093424;28;20283;-85
2023/02/27 02:10:39;;;;;;;5.65;4.68;;;5.00;99.90;;;;;;5093124;28;20193;-77
2023/02/27 02:13:06;;;;;;;7.35;5.40;;;5.00;99.90;;;;;;5094187;28;20626;-77
2023/02/27 02:15:38;;;;;;;8.60;5.20;;;4.90;99.90;;;;;;5094438;28;20165;-86
2023/02/27 02:18:18;;;;;;;7.45;4.90;;;4.90;99.90;;;;;;5093157;28;20245;-86
2023/02/27 02:21:03;;;;;;;10.52;5.90;;;4.90;99.90;;;;;;5094302;28;20630;-77
2023/02/27 02:23:49;;;;;;;8.10;5.25;;;4.90;99.90;;;;;;5094335;28;20189;-85
2023/02/27 02:26:35;;;;;;;5.95;4.25;;;4.90;99.90;;;;;;5093119;28;20279;-85
2023/02/27 02:29:10;;;;;;;5.95;4.75;;;4.90;99.90;;;;;;5094202;28;20189;-77
2023/02/27 02:32:06;;;;;;;7.10;4.70;;;4.90;99.90;;;;;;5094422;28;20179;-85
2023/02/27 02:35:06;;;;;;;6.95;5.57;;;4.90;99.90;;;;;;5092879;28;20517;-77
2023/02/27 02:38:05;;;;;;;8.82;5.95;;;4.90;99.90;;;;;;5092851;28;20740;-77
2023/02/27 02:40:30;;;;;;;7.65;5.45;;;4.90;99.90;;;;;;5092809;28;20521;-85
2023/02/27 02:43:28;;;;;;;5.73;5.03;;;4.90;99.90;;;;;;5092644;28;20234;-77
2023/02/27 02:46:18;;;;;;;6.85;5.60;;;4.90;99.90;;;;;;5092871;28;20653;-77
2023/02/27 02:48:51;;;;;;;5.10;4.60;;;4.90;99.90;;;;;;5093950;28;20279;-85
2023/02/27 02:51:38;;;;;;;5.95;4.80;;;4.80;99.90;;;;;;5092660;28;20267;-77
2023/02/27 02:54:25;;;;;;;5.38;4.50;;;4.70;99.90;;;;;;5092694;28;20175;-77
2023/02/27 02:56:55;;;;;;;6.15;5.18;;;4.70;99.90;;;;;;5094170;28;20567;-77
2023/02/27 02:59:52;;;;;;;5.97;4.95;;;4.70;99.90;;;;;;5092618;28;20633;-85
2023/02/27 03:02:23;;;;;;;6.50;4.63;;;4.70;99.90;;;;;;5092569;28;20607;-85
2023/02/27 03:04:57;;;;;;;5.88;4.82;;;4.70;99.90;;;;;;5093786;28;20243;-76
2023/02/27 03:07:29;;;;;;;5.18;4.20;;;4.70;99.90;;;;;;5093809;28;20675;-78
2023/02/27 03:10:25;;;;;;;6.18;4.72;;;4.60;99.90;;;;;;5096822;28;20692;-76
2023/02/27 03:12:59;;;;;;;7.43;5.30;;;4.60;99.90;;;;;;5097986;28;20752;-85
2023/02/27 03:15:33;;;;;;;7.43;5.50;;;4.60;99.90;;;;;;5096962;28;20184;-85
2023/02/27 03:18:16;;;;;;;9.07;5.20;;;4.60;99.90;;;;;;5098296;28;20207;-85
2023/02/27 03:20:47;;;;;;;6.07;4.50;;;4.70;99.90;;;;;;5097820;28;20604;-77
2023/02/27 03:23:20;;;;;;;7.00;4.40;;;4.60;99.90;;;;;;5097868;28;20235;-84
2023/02/27 03:25:47;;;;;;;6.47;5.60;;;4.70;99.90;;;;;;5096376;28;20181;-77
2023/02/27 03:28:18;;;;;;;6.05;4.72;;;4.70;99.90;;;;;;5097620;28;20213;-85
2023/02/27 03:30:52;;;;;;;6.50;5.32;;;4.60;99.90;;;;;;5097591;28;20562;-77
2023/02/27 03:33:42;;;;;;;6.95;5.05;;;4.60;99.90;;;;;;5096223;28;20226;-77
2023/02/27 03:36:27;;;;;;;5.55;4.47;;;4.60;99.90;;;;;;5097535;28;20222;-78
2023/02/27 03:39:06;;;;;;;7.97;4.78;;;4.50;99.90;;;;;;5097487;28;20275;-77
2023/02/27 03:41:41;;;;;;;4.82;4.35;;;4.60;99.90;;;;;;5097658;28;20259;-77
2023/02/27 03:44:25;;;;;;;6.63;4.50;;;4.60;99.90;;;;;;5097387;28;20689;-84
2023/02/27 03:46:51;;;;;;;6.88;4.78;;;4.60;99.90;;;;;;5097485;28;20176;-84
2023/02/27 03:49:17;;;;;;;5.40;4.90;;;4.60;99.90;;;;;;5097637;28;20164;-85
2023/02/27 03:51:43;;;;;;;7.07;4.77;;;4.60;99.90;;;;;;5095891;28;20595;-81
2023/02/27 03:54:15;;;;;;;5.32;4.30;;;4.50;99.90;;;;;;5097456;28;20443;-82
2023/02/27 03:56:47;;;;;;;5.95;4.28;;;4.50;99.90;;;;;;5096876;28;20216;-77
2023/02/27 03:59:13;;;;;;;6.32;5.18;;;4.50;99.90;;;;;;5095818;28;20172;-77
2023/02/27 04:01:40;;;;;;;5.38;4.85;;;4.50;99.90;;;;;;5097129;28;20187;-77
2023/02/27 04:04:14;;;;;;;6.07;4.57;;;4.50;99.90;;;;;;5097058;28;20209;-77
2023/02/27 04:10:05;;;;;;;4.70;4.05;;;4.40;99.90;;;;;;5096872;28;20640;-85
2023/02/27 04:12:58;;;;;;;6.57;4.47;;;4.50;99.90;;;;;;5095258;28;20254;-85
2023/02/27 04:15:28;;;;;;;6.53;4.68;;;4.40;99.90;;;;;;5095407;28;20172;-77
2023/02/27 04:18:28;;;;;;;5.88;4.47;;;4.40;99.90;;;;;;5096855;28;20196;-77
2023/02/27 04:21:05;;;;;;;9.10;5.00;;;4.40;99.90;;;;;;5096842;28;20669;-85
2023/02/27 04:23:48;;;;;;;10.38;5.30;;;4.40;99.90;;;;;;5096582;28;20196;-85
2023/02/27 04:26:29;;;;;;;5.90;4.55;;;4.40;99.90;;;;;;5096670;28;20168;-77
2023/02/27 04:29:10;;;;;;;5.93;4.93;;;4.30;99.90;;;;;;5096553;28;20543;-77
2023/02/27 04:31:42;;;;;;;5.20;4.18;;;4.30;99.90;;;;;;5096401;28;20725;-85
2023/02/27 04:34:33;;;;;;;7.10;4.97;;;4.30;99.90;;;;;;5095143;28;20168;-85
2023/02/27 04:37:12;;;;;;;6.43;4.55;;;4.30;99.90;;;;;;5096500;28;20688;-85
2023/02/27 04:39:52;;;;;;;6.13;4.68;;;4.20;99.90;;;;;;5096369;28;20621;-84
2023/02/27 04:42:23;;;;;;;9.15;5.07;;;4.20;99.90;;;;;;5096600;28;20204;-85
2023/02/27 04:44:53;;;;;;;5.40;4.70;;;4.20;99.90;;;;;;5094932;28;20176;-85
2023/02/27 04:47:21;;;;;;;7.43;5.03;;;4.10;99.90;;;;;;5094929;28;20661;-76
2023/02/27 04:49:53;;;;;;;9.55;5.05;;;4.10;99.90;;;;;;5096042;28;20649;-77
2023/02/27 04:52:42;;;;;;;5.88;5.07;;;4.10;99.90;;;;;;5094947;28;20657;-77
2023/02/27 04:55:16;;;;;;;8.10;5.30;;;4.10;99.90;;;;;;5087090;28;20196;-85
2023/02/27 04:57:57;;;;;;;7.07;4.85;;;4.30;99.90;;;;;;5094357;28;20227;-77
2023/02/27 05:00:26;;;;;;;5.78;5.10;;;4.70;99.90;;;;;;5092785;28;20172;-85
2023/02/27 05:02:58;;;;;;;10.07;4.70;;;4.90;99.90;;;;;;5092585;28;20200;-77
2023/02/27 05:05:27;;;;;;;5.47;4.50;;;5.30;99.90;;;;;;5096561;28;20383;-77
2023/02/27 05:08:02;;;;;;;5.85;4.75;;;5.30;99.90;;;;;;5095056;28;20723;-77
2023/02/27 05:10:34;;;;;;;6.75;4.30;;;5.40;99.90;;;;;;5095552;28;20176;-85
2023/02/27 05:13:21;;;;;;;7.70;5.43;;;5.60;99.90;;;;;;5094108;28;20335;-84
2023/02/27 05:15:51;;;;;;;5.65;4.25;;;6.00;99.90;;;;;;5094075;28;20208;-77
2023/02/27 05:18:19;;;;;;;7.07;4.88;;;6.40;99.90;;;;;;5095403;28;20685;-77
2023/02/27 05:21:06;;;;;;;8.20;6.10;;;6.60;99.90;;;;;;5090401;28;20191;-77
2023/02/27 05:23:44;;;;;;;6.03;3.92;;;6.60;99.90;;;;;;5084669;28;20231;-86
2023/02/27 05:26:18;;;;;;;7.05;4.40;;;6.90;99.90;;;;;;5084356;28;20267;-85
2023/02/27 05:28:59;;;;;;;7.57;4.97;;;7.00;99.90;;;;;;5085986;28;20213;-85
2023/02/27 05:31:28;;;;;;;5.32;4.82;;;7.00;99.90;;;;;;5090824;28;20206;-86
2023/02/27 05:34:01;;;;;;;6.53;4.45;;;6.80;99.90;;;;;;5092130;28;20742;-82
2023/02/27 05:36:35;;;;;;;6.35;4.95;;;6.70;99.90;;;;;;5092314;28;20307;-81
2023/02/27 05:39:07;;;;;;;5.45;4.90;;;6.80;99.90;;;;;;5090974;28;20237;-83
2023/02/27 05:41:40;;;;;;;7.05;4.72;;;6.90;99.90;;;;;;5094934;28;20173;-82
2023/02/27 05:44:12;;;;;;;4.85;4.20;;;7.00;99.90;;;;;;5091814;28;20325;-83
2023/02/27 05:46:43;;;;;;;5.60;4.80;;;7.30;99.90;;;;;;5088693;28;20185;-82
2023/02/27 05:49:24;;;;;;;6.05;4.68;;;7.20;99.90;;;;;;5071728;28;20570;-81
2023/02/27 05:51:52;;;;;;;5.55;4.45;;;7.30;99.90;;;;;;5082335;28;20192;-85
2023/02/27 05:54:43;;;;;;;5.93;4.50;;;7.40;99.90;;;;;;5080116;28;20689;-81
2023/02/27 05:57:13;;;;;;;5.18;4.15;;;7.40;99.90;;;;;;5090709;28;20212;-82
2023/02/27 05:59:53;;;;;;;5.40;4.78;;;7.40;99.90;;;;;;5092412;28;20698;-85
2023/02/27 06:02:19;;;;;;;6.78;5.00;;;7.40;99.90;;;;;;5089279;28;20214;-84
2023/02/27 06:04:45;;;;;;;12.53;7.90;;;7.40;99.90;;;;;;5089207;28;20197;-82
2023/02/27 06:07:13;;;;;;;6.33;4.90;;;7.40;99.90;;;;;;5089124;28;20231;-84
2023/02/27 06:09:40;;;;;;;6.40;5.18;;;7.30;99.90;;;;;;5086901;28;20176;-82
2023/02/27 06:12:06;;;;;;;7.32;5.18;;;7.20;99.90;;;;;;5081500;28;20228;-84
2023/02/27 06:14:32;;;;;;;6.67;5.40;;;7.10;99.90;;;;;;5092160;28;20178;-82
2023/02/27 06:16:57;;;;;;;9.70;5.70;;;6.60;99.90;;;;;;5086996;28;20228;-80
2023/02/27 06:19:24;;;;;;;13.82;5.93;;;6.10;99.90;;;;;;5082228;28;20213;-81
2023/02/27 06:21:50;;;;;;;9.70;6.03;;;5.60;99.90;;;;;;5071861;28;20536;-81
2023/02/27 06:24:16;;;;;;;5.53;4.90;;;5.40;99.90;;;;;;5099907;28;20213;-81
2023/02/27 06:26:41;;;;;;;8.80;5.30;;;5.30;99.90;;;;;;5094059;28;20230;-80
2023/02/27 06:29:07;;;;;;;6.67;5.17;;;5.10;99.90;;;;;;5080837;28;20179;-84
2023/02/27 06:31:32;;;;;;;5.97;5.37;;;5.00;99.90;;;;;;5092918;28;20187;-84
2023/02/27 06:33:58;;;;;;;7.43;5.70;;;4.90;99.90;;;;;;5093962;28;20287;-83
2023/02/27 06:36:24;;;;;;;7.97;5.80;;;4.80;99.90;;;;;;5086210;28;20326;-82
2023/02/27 06:38:50;;;;;;;8.17;5.97;;;4.70;99.90;;;;;;5091138;28;20224;-83
2023/02/27 06:41:15;;;;;;;10.47;6.53;;;4.70;99.90;;;;;;5089986;28;20478;-82
2023/02/27 06:43:41;;;;;;;7.70;5.20;;;4.70;99.90;;;;;;5089864;28;20215;-81
2023/02/27 06:46:06;;;;;;;8.73;5.90;;;4.70;99.90;;;;;;5089590;28;20275;-83
2023/02/27 06:48:32;;;;;;;8.00;6.50;;;4.70;99.90;;;;;;5077925;28;20212;-81
2023/02/27 06:50:58;;;;;;;8.37;5.30;;;4.70;99.90;;;;;;5087306;28;20543;-81
2023/02/27 06:53:24;;;;;;;6.83;4.93;;;4.60;99.90;;;;;;5091790;28;20421;-82
2023/02/27 06:55:50;;;;;;;7.32;5.68;;;4.60;99.90;;;;;;5090079;28;20269;-81
2023/02/27 06:58:16;;;;;;;6.13;5.43;;;4.50;99.90;;;;;;5092161;28;20684;-81
2023/02/27 07:00:42;;;;;;;6.07;5.05;;;4.50;99.90;;;;;;5092195;28;20263;-81
2023/02/27 07:03:09;;;;;;;6.90;5.70;;;4.50;99.90;;;;;;5072920;28;20262;-84
2023/02/27 07:05:35;;;;;;;5.75;4.88;;;4.50;99.90;;;;;;5070746;28;20169;-82
2023/02/27 07:08:02;;;;;;;7.50;5.20;;;4.50;99.90;;;;;;5071435;28;20252;-81
2023/02/27 07:10:28;;;;;;;5.90;5.28;;;4.50;99.90;;;;;;5088168;28;20954;-83
2023/02/27 07:12:54;;;;;;;6.78;5.03;;;4.60;99.90;;;;;;5089393;28;20323;-82
2023/02/27 07:15:20;;;;;;;8.03;5.47;;;4.60;99.90;;;;;;5081016;28;20268;-81
2023/02/27 07:17:45;;;;;;;6.43;4.83;;;4.60;99.90;;;;;;5086126;28;20219;-84
2023/02/27 07:20:11;;;;;;;8.27;5.63;;;4.60;99.90;;;;;;5090319;28;20649;-80
2023/02/27 07:22:38;;;;;;;7.37;5.67;;;4.60;99.90;;;;;;5080003;28;20272;-83
2023/02/27 07:25:05;;;;;;;7.53;5.90;;;4.80;99.90;;;;;;5087201;28;20414;-84
2023/02/27 07:27:30;;;;;;;9.63;5.60;;;4.80;99.90;;;;;;5088504;28;20665;-84
2023/02/27 07:29:56;;;;;;;7.43;5.60;;;4.80;99.90;;;;;;5089859;28;20182;-81
2023/02/27 07:32:22;;;;;;;6.60;5.10;;;4.80;99.90;;;;;;5070746;28;20212;-84
2023/02/27 07:34:47;;;;;;;6.83;4.70;;;4.80;99.90;;;;;;5059793;28;20712;-82
2023/02/27 07:37:13;;;;;;;7.13;5.03;;;4.80;99.90;;;;;;5059565;28;20297;-79
2023/02/27 07:39:39;;;;;;;9.20;5.73;;;4.80;99.90;;;;;;5060842;28;20677;-81
2023/02/27 07:42:05;;;;;;;6.27;5.60;;;4.90;99.90;;;;;;5078911;28;20227;-80
2023/02/27 07:44:31;;;;;;;7.33;5.27;;;4.90;99.90;;;;;;5087418;28;20592;-82
2023/02/27 07:46:57;;;;;;;6.68;5.22;;;4.90;99.90;;;;;;5100030;28;20435;-82
2023/02/27 07:49:23;;;;;;;5.10;4.33;;;4.90;99.90;;;;;;5059176;28;20211;-80
2023/02/27 07:51:48;;;;;;;6.20;4.43;;;4.90;99.90;;;;;;5070700;28;20216;-85
2023/02/27 07:54:14;;;;;;;7.00;5.30;;;5.00;99.90;;;;;;5093626;28;20191;-83
2023/02/27 07:56:39;;;;;;;7.23;5.60;;;5.00;99.90;;;;;;5087207;28;20213;-82
2023/02/27 07:59:05;;;;;;;6.20;5.60;;;5.10;99.90;;;;;;5090863;28;20613;-85
2023/02/27 08:01:31;;;;;;;5.33;4.70;;;5.30;99.90;;;;;;5091325;28;20176;-80
2023/02/27 08:03:56;;;;;;;6.63;5.20;;;5.50;99.90;;;;;;5083781;28;20299;-82
2023/02/27 08:06:22;;;;;;;7.93;5.37;;;5.60;99.90;;;;;;5096144;28;20616;-83
2023/02/27 08:08:49;;;;;;;7.00;5.03;;;5.70;99.90;;;;;;5096819;28;20204;-82
2023/02/27 08:11:14;;;;;;;6.35;4.80;;;6.00;99.90;;;;;;5095683;28;20176;-80
2023/02/27 08:13:40;;;;;;;8.73;5.10;;;6.40;99.90;;;;;;5093877;28;20227;-83
2023/02/27 08:16:07;;;;;;;7.50;4.80;;;7.10;99.90;;;;;;5086751;28;20204;-80
2023/02/27 08:18:32;;;;;;;7.43;5.35;;;7.80;99.90;;;;;;5092513;28;20197;-81
2023/02/27 08:20:58;;;;;;;6.07;4.43;;;8.60;99.90;;;;;;5093180;28;20177;-82
2023/02/27 08:23:24;;;;;;;5.63;4.70;;;9.40;99.90;;;;;;5083917;28;20689;-83
2023/02/27 08:25:50;;;;;;;6.10;4.70;;;10.30;99.90;;;;;;5087946;28;20792;-81
2023/02/27 08:28:17;;;;;;;7.80;5.17;;;10.90;99.90;;;;;;5095705;28;20444;-84
2023/02/27 08:30:43;;;;;;;7.13;5.10;;;11.10;99.90;;;;;;5083803;28;20434;-83
2023/02/27 08:33:09;;;;;;;5.60;4.93;;;11.10;98.90;;;;;;5092673;28;20615;-82
2023/02/27 08:35:35;;;;;;;8.38;5.68;;;11.20;98.00;;;;;;5089011;28;20176;-84
2023/02/27 08:38:01;;;;;;;5.60;5.00;;;11.40;98.60;;;;;;5087563;28;20212;-81
2023/02/27 08:40:26;;;;;;;5.80;4.93;;;11.80;99.00;;;;;;5086244;28;20184;-83
2023/02/27 08:42:52;;;;;;;9.97;6.53;;;12.50;97.60;;;;;;5085081;28;20448;-84
2023/02/27 08:45:18;;;;;;;6.93;5.03;;;13.20;96.50;;;;;;5090487;28;20255;-81
2023/02/27 08:47:44;;;;;;;7.33;4.40;;;14.00;93.90;;;;;;5081644;28;20200;-81
2023/02/27 08:50:11;;;;;;;7.23;5.33;;;14.50;93.80;;;;;;5075360;28;20231;-84
2023/02/27 08:52:37;;;;;;;6.20;5.60;;;15.00;91.50;;;;;;5091792;28;21133;-82
2023/02/27 08:55:03;;;;;;;6.90;5.37;;;15.00;90.90;;;;;;5090045;28;20825;-85
2023/02/27 08:57:28;;;;;;;7.57;5.50;;;15.00;89.30;;;;;;5077074;28;20469;-84
2023/02/27 08:59:54;;;;;;;6.43;5.67;;;14.90;88.50;;;;;;5086052;28;20192;-84
2023/02/27 09:02:24;;;;;;;7.10;4.63;;;14.60;87.80;;;;;;5079770;28;20217;-85
2023/02/27 09:04:50;;;;;;;8.73;5.60;;;14.10;88.10;;;;;;5081779;28;20197;-85
2023/02/27 09:07:16;;;;;;;6.83;5.40;;;13.70;87.60;;;;;;5078728;28;20536;-81
2023/02/27 09:09:42;;;;;;;6.43;5.77;;;13.30;88.20;;;;;;5078129;28;20941;-80
2023/02/27 09:12:08;;;;;;;6.47;5.27;;;13.10;88.50;;;;;;5091380;28;20496;-84
2023/02/27 09:14:33;;;;;;;6.80;6.10;;;12.90;90.00;;;;;;5093987;28;20172;-81
2023/02/27 09:16:59;;;;;;;6.97;5.17;;;12.90;89.90;;;;;;5091348;28;20223;-81
2023/02/27 09:19:25;;;;;;;7.17;5.13;;;12.70;89.10;;;;;;5107671;28;20260;-84
2023/02/27 09:21:50;;;;;;;7.10;5.77;;;12.50;88.50;;;;;;5103512;28;20191;-81
2023/02/27 09:24:16;;;;;;;7.50;5.40;;;12.10;90.00;;;;;;5092754;28;20187;-85
2023/02/27 09:26:43;;;;;;;7.80;5.90;;;11.90;90.00;;;;;;5084342;28;20170;-84
2023/02/27 09:29:08;;;;;;;7.30;5.88;;;11.50;90.00;;;;;;5084727;28;20180;-79
2023/02/27 09:31:35;;;;;;;6.40;5.47;;;11.10;90.60;;;;;;5082875;28;20743;-82
2023/02/27 09:34:01;;;;;;;12.30;8.32;;;10.80;91.10;;;;;;5086925;28;20270;-80
2023/02/27 09:36:27;;;;;;;15.40;9.47;;;10.60;90.90;;;;;;5086896;28;20362;-80
2023/02/27 09:38:53;;;;;;;11.52;7.75;;;10.30;91.00;;;;;;5085536;28;20419;-84
2023/02/27 09:41:43;;;;;;;6.33;5.50;;;10.10;91.60;;;;;;5099090;27;20557;-83
2023/02/27 09:44:20;;;;;;;10.40;5.68;;;10.00;91.90;;;;;;5087796;28;20249;-83
2023/02/27 09:46:46;;;;;;;5.90;5.25;;;9.90;91.60;;;;;;5087866;28;20172;-84
2023/02/27 09:49:17;;;;;;;7.70;6.10;;;9.70;92.20;;;;;;5086409;28;20177;-80
2023/02/27 09:51:43;;;;;;;6.28;5.47;;;9.50;92.20;;;;;;5074523;28;20281;-79
2023/02/27 09:54:10;;;;;;;7.70;5.20;;;9.30;92.00;;;;;;5070718;28;20912;-81
2023/02/27 09:56:46;;;;;;;8.80;6.40;;;9.10;93.10;;;;;;5087061;28;20208;-82
2023/02/27 09:59:50;;;;;;;19.60;12.20;;;9.10;92.70;;;;;;5071418;28;20210;-80
2023/02/27 10:02:22;;;;;;;6.13;5.53;;;9.10;94.00;;;;;;5072998;28;20239;-81
2023/02/27 10:05:21;;;;;;;9.27;6.95;;;9.00;92.70;;;;;;5107662;27;20196;-80
2023/02/27 10:08:07;;;;;;;8.32;6.47;;;8.90;93.20;;;;;;5076069;28;20196;-82
2023/02/27 10:10:44;;;;;;;7.88;6.20;;;8.60;93.60;;;;;;5089409;28;20180;-82
2023/02/27 10:13:51;;;;;;;7.35;5.70;;;8.40;94.60;;;;;;5078123;28;20327;-82
2023/02/27 10:16:20;;;;;;;7.80;5.75;;;8.40;94.80;;;;;;5067567;28;20216;-81
2023/02/27 10:18:49;;;;;;;9.65;5.00;;;8.50;94.70;;;;;;5067151;28;20216;-81
2023/02/27 10:21:21;;;;;;;7.63;5.63;;;8.70;93.90;;;;;;5069448;28;20193;-81
2023/02/27 10:24:04;;;;;;;7.95;6.28;;;8.70;94.30;;;;;;5083803;28;20207;-83
2023/02/27 10:26:37;;;;;;;7.05;5.78;;;8.70;94.70;;;;;;5087893;28;20180;-83
2023/02/27 10:29:22;;;;;;;6.00;5.30;;;8.70;94.20;;;;;;5090427;28;20187;-82
2023/02/27 10:31:58;;;;;;;6.55;5.18;;;8.60;94.30;;;;;;5079937;28;20169;-83
2023/02/27 10:34:26;;;;;;;8.52;5.07;;;8.50;94.40;;;;;;5086853;28;20197;-83
2023/02/27 10:36:52;;;;;;;9.20;5.60;;;8.50;95.30;;;;;;5084536;28;20212;-83
2023/02/27 10:39:20;;;;;;;11.45;7.05;;;8.70;95.80;;;;;;5094717;28;20189;-82
2023/02/27 10:41:46;;;;;;;6.47;4.80;;;8.90;94.90;;;;;;5091392;28;20644;-83
2023/02/27 10:44:19;;;;;;;9.60;5.50;;;9.10;94.30;;;;;;5090933;28;20188;-83
2023/02/27 10:46:46;;;;;;;8.10;6.22;;;9.20;94.40;;;;;;5094090;28;20235;-82
2023/02/27 10:49:20;;;;;;;6.97;5.75;;;9.20;95.10;;;;;;5091432;28;20675;-83
2023/02/27 10:52:04;;;;;;;10.63;6.18;;;9.20;95.50;;;;;;5089468;28;20176;-82
2023/02/27 10:54:30;;;;;;;8.07;5.82;;;9.20;94.40;;;;;;5089838;28;20193;-82
2023/02/27 10:56:59;;;;;;;6.47;5.80;;;9.20;95.30;;;;;;5085413;28;21258;-84
2023/02/27 10:59:27;;;;;;;9.15;5.65;;;9.10;94.80;;;;;;5083829;28;20646;-82
2023/02/27 11:02:02;;;;;;;6.38;5.45;;;9.10;94.10;;;;;;5085250;28;20263;-82
2023/02/27 11:04:38;;;;;;;6.68;5.75;;;9.10;95.20;;;;;;5079404;28;20200;-82
2023/02/27 11:07:08;;;;;;;8.77;5.57;;;9.20;95.20;;;;;;5084618;28;20193;-82
2023/02/27 11:09:35;;;;;;;7.95;5.60;;;9.30;95.50;;;;;;5081464;28;20176;-83
2023/02/27 11:12:11;;;;;;;8.45;5.78;;;9.50;94.50;;;;;;5084591;28;20235;-83
2023/02/27 11:15:13;;;;;;;6.57;5.65;;;9.70;95.30;;;;;;5082386;28;20688;-81
2023/02/27 11:17:39;;;;;;;8.52;6.07;;;9.80;94.50;;;;;;5087861;28;20321;-80
2023/02/27 11:20:32;;;;;;;8.10;5.73;;;9.80;94.30;;;;;;5085941;28;20351;-80
2023/02/27 11:23:03;;;;;;;7.53;5.53;;;9.90;93.90;;;;;;5089319;28;20455;-81
2023/02/27 11:25:29;;;;;;;9.65;5.60;;;10.00;94.20;;;;;;5086646;28;20264;-80
2023/02/27 11:28:22;;;;;;;7.88;6.00;;;10.20;94.00;;;;;;5088608;28;20685;-83
2023/02/27 11:31:01;;;;;;;5.32;4.68;;;10.20;93.90;;;;;;5082658;28;20210;-83
2023/02/27 11:33:30;;;;;;;8.07;4.75;;;10.20;92.90;;;;;;5094773;28;20261;-81
2023/02/27 11:35:57;;;;;;;5.40;4.07;;;10.00;93.00;;;;;;5083029;28;20460;-83
2023/02/27 11:38:26;;;;;;;7.45;5.20;;;10.00;93.30;;;;;;5088404;28;20208;-80
2023/02/27 11:41:04;;;;;;;6.55;5.30;;;9.90;92.90;;;;;;5080073;28;20233;-81
2023/02/27 11:43:46;;;;;;;10.85;7.95;;;9.90;92.70;;;;;;5079927;28;20201;-83
2023/02/27 11:46:22;;;;;;;11.35;7.43;;;9.70;93.30;;;;;;5087040;28;20678;-83
2023/02/27 11:49:06;;;;;;;10.13;7.93;;;9.60;93.00;;;;;;5082861;28;20719;-82
2023/02/27 11:51:39;;;;;;;8.02;5.55;;;9.60;94.20;;;;;;5086476;28;20176;-80
2023/02/27 11:54:18;;;;;;;8.68;5.70;;;9.60;93.50;;;;;;5086543;28;20764;-79
2023/02/27 11:56:49;;;;;;;5.57;5.00;;;9.60;92.70;;;;;;5084553;28;20301;-83
2023/02/27 11:59:24;;;;;;;7.88;6.28;;;9.60;92.10;;;;;;5085028;28;20669;-83
2023/02/27 12:01:58;;;;;;;9.27;6.68;;;9.60;93.40;;;;;;5085993;28;20202;-83
2023/02/27 12:04:32;;;;;;;6.38;5.10;;;9.70;93.60;;;;;;5086949;28;20183;-83
2023/02/27 12:07:02;;;;;;;10.40;7.20;;;9.90;92.60;;;;;;5086862;28;20600;-83
2023/02/27 12:09:43;;;;;;;5.78;4.43;;;9.80;92.70;;;;;;5082665;28;20173;-80
2023/02/27 12:12:24;;;;;;;6.60;4.80;;;9.80;92.70;;;;;;5090192;28;20234;-80
2023/02/27 12:15:03;;;;;;;6.93;5.07;;;9.90;92.50;;;;;;5085163;28;20184;-83
2023/02/27 12:17:37;;;;;;;6.32;5.28;;;9.90;91.80;;;;;;5081408;28;20223;-80
2023/02/27 12:20:33;;;;;;;7.47;5.28;;;9.70;92.70;;;;;;5088937;28;20176;-83
2023/02/27 12:23:03;;;;;;;6.53;5.82;;;9.70;93.00;;;;;;5083045;28;20219;-80
2023/02/27 12:25:45;;;;;;;5.97;4.32;;;9.60;92.70;;;;;;5083533;28;20634;-83
2023/02/27 12:28:55;;;;;;;6.45;5.15;;;9.70;92.80;;;;;;5089616;28;20299;-83
2023/02/27 12:31:37;;;;;;;8.40;5.32;;;9.80;92.80;;;;;;5089035;28;20276;-80
2023/02/27 12:34:28;;;;;;;6.55;4.95;;;9.80;92.50;;;;;;5081998;28;20662;-83
2023/02/27 12:37:04;;;;;;;9.65;5.03;;;9.80;92.80;;;;;;5078581;28;20558;-80
2023/02/27 12:39:31;;;;;;;6.22;5.03;;;9.80;92.50;;;;;;5081175;28;20180;-83
2023/02/27 12:42:05;;;;;;;5.18;4.68;;;9.90;92.40;;;;;;5083621;28;20875;-80
2023/02/27 12:44:58;;;;;;;8.35;5.57;;;9.90;91.80;;;;;;5084988;28;20185;-80
2023/02/27 12:47:32;;;;;;;5.80;4.20;;;9.90;93.10;;;;;;5095580;28;20685;-83
2023/02/27 12:50:04;;;;;;;7.45;5.20;;;10.00;92.70;;;;;;5089652;28;20646;-79
2023/02/27 12:52:45;;;;;;;7.70;5.93;;;10.00;92.30;;;;;;5085154;28;20287;-80
2023/02/27 12:55:25;;;;;;;7.00;5.32;;;9.90;91.90;;;;;;5087987;28;20184;-83
2023/02/27 12:58:06;;;;;;;5.93;4.32;;;10.00;91.80;;;;;;5088784;28;20708;-80
2023/02/27 13:00:47;;;;;;;8.15;5.55;;;10.00;91.80;;;;;;5095789;28;20279;-83
2023/02/27 13:03:49;;;;;;;5.45;4.95;;;10.10;92.50;;;;;;5088559;28;20204;-83
2023/02/27 13:06:37;;;;;;;7.82;5.65;;;10.20;92.60;;;;;;5090807;28;20183;-83
2023/02/27 13:09:25;;;;;;;6.25;5.03;;;10.20;92.10;;;;;;5072728;28;20219;-83
2023/02/27 13:12:26;;;;;;;6.50;5.03;;;10.20;91.80;;;;;;5086329;28;20181;-83
2023/02/27 13:14:58;;;;;;;6.50;5.18;;;10.30;91.90;;;;;;5076882;28;20187;-83
2023/02/27 13:17:36;;;;;;;5.88;5.28;;;10.40;91.70;;;;;;5084953;28;20220;-83
2023/02/27 13:20:05;;;;;;;5.15;4.55;;;10.30;91.00;;;;;;5081767;28;20177;-82
2023/02/27 13:22:35;;;;;;;10.63;7.22;;;10.20;92.00;;;;;;5081253;28;20654;-80
2023/02/27 13:25:10;;;;;;;6.32;5.15;;;10.20;91.30;;;;;;5081903;28;20193;-80